sensor_id;sensor_type;location;lat;lon;timestamp;P1;durP1;ratioP1;P2;durP2;ratioP2
64667;SDS011;51077;42.716;23.344;2022-10-13T00:00:26;32.30;;;19.02;;
64667;SDS011;51077;42.716;23.344;2022-10-13T00:02:51;31.60;;;19.13;;
64667;SDS011;51077;42.716;23.344;2022-10-13T00:05:17;27.53;;;18.63;;
64667;SDS011;51077;42.716;23.344;2022-10-13T00:07:43;31.67;;;18.33;;
64667;SDS011;51077;42.716;23.344;2022-10-13T00:10:08;27.60;;;18.20;;
64667;SDS011;51077;42.716;23.344;2022-10-13T00:12:34;26.93;;;18.77;;
64667;SDS011;51077;42.716;23.344;2022-10-13T00:15:01;31.67;;;19.75;;
64667;SDS011;51077;42.716;23.344;2022-10-13T00:17:27;28.92;;;18.73;;
64667;SDS011;51077;42.716;23.344;2022-10-13T00:19:52;29.33;;;19.43;;
64667;SDS011;51077;42.716;23.344;2022-10-13T00:22:17;29.70;;;18.43;;
64667;SDS011;51077;42.716;23.344;2022-10-13T00:24:43;27.93;;;18.30;;
64667;SDS011;51077;42.716;23.344;2022-10-13T00:27:08;29.40;;;18.90;;
64667;SDS011;51077;42.716;23.344;2022-10-13T00:29:34;26.43;;;17.97;;
64667;SDS011;51077;42.716;23.344;2022-10-13T00:31:59;29.57;;;17.37;;
64667;SDS011;51077;42.716;23.344;2022-10-13T00:34:24;27.30;;;18.97;;
64667;SDS011;51077;42.716;23.344;2022-10-13T00:36:50;26.77;;;17.97;;
64667;SDS011;51077;42.716;23.344;2022-10-13T00:39:15;31.80;;;18.50;;
64667;SDS011;51077;42.716;23.344;2022-10-13T00:41:41;30.60;;;19.13;;
64667;SDS011;51077;42.716;23.344;2022-10-13T00:47:09;30.55;;;18.65;;
64667;SDS011;51077;42.716;23.344;2022-10-13T00:49:34;33.30;;;17.97;;
64667;SDS011;51077;42.716;23.344;2022-10-13T00:52:00;30.50;;;19.43;;
64667;SDS011;51077;42.716;23.344;2022-10-13T00:54:25;30.23;;;19.27;;
64667;SDS011;51077;42.716;23.344;2022-10-13T00:56:51;27.40;;;18.27;;
64667;SDS011;51077;42.716;23.344;2022-10-13T00:59:19;27.63;;;17.80;;
64667;SDS011;51077;42.716;23.344;2022-10-13T01:01:50;27.38;;;18.90;;
64667;SDS011;51077;42.716;23.344;2022-10-13T01:04:16;30.30;;;19.58;;
64667;SDS011;51077;42.716;23.344;2022-10-13T01:06:43;34.53;;;21.13;;
64667;SDS011;51077;42.716;23.344;2022-10-13T01:09:10;30.08;;;18.85;;
64667;SDS011;51077;42.716;23.344;2022-10-13T01:35:01;26.08;;;16.77;;
64667;SDS011;51077;42.716;23.344;2022-10-13T01:37:53;22.75;;;15.65;;
64667;SDS011;51077;42.716;23.344;2022-10-13T01:43:11;24.48;;;16.98;;
64667;SDS011;51077;42.716;23.344;2022-10-13T01:45:49;28.80;;;16.15;;
64667;SDS011;51077;42.716;23.344;2022-10-13T01:48:18;23.58;;;15.63;;
64667;SDS011;51077;42.716;23.344;2022-10-13T01:50:45;22.75;;;15.10;;
64667;SDS011;51077;42.716;23.344;2022-10-13T01:53:12;23.15;;;15.50;;
64667;SDS011;51077;42.716;23.344;2022-10-13T01:55:55;21.95;;;14.98;;
64667;SDS011;51077;42.716;23.344;2022-10-13T01:58:22;20.77;;;13.15;;
64667;SDS011;51077;42.716;23.344;2022-10-13T02:08:56;17.20;;;11.60;;
64667;SDS011;51077;42.716;23.344;2022-10-13T02:11:26;19.80;;;11.73;;
64667;SDS011;51077;42.716;23.344;2022-10-13T02:14:12;14.07;;;10.83;;
64667;SDS011;51077;42.716;23.344;2022-10-13T02:16:42;20.50;;;12.00;;
64667;SDS011;51077;42.716;23.344;2022-10-13T02:19:11;17.60;;;11.60;;
64667;SDS011;51077;42.716;23.344;2022-10-13T02:21:40;17.83;;;11.07;;
64667;SDS011;51077;42.716;23.344;2022-10-13T02:24:06;16.00;;;11.38;;
64667;SDS011;51077;42.716;23.344;2022-10-13T02:26:33;19.70;;;11.25;;
64667;SDS011;51077;42.716;23.344;2022-10-13T02:29:06;19.63;;;12.02;;
64667;SDS011;51077;42.716;23.344;2022-10-13T02:31:33;16.63;;;11.52;;
64667;SDS011;51077;42.716;23.344;2022-10-13T02:33:58;18.13;;;12.00;;
64667;SDS011;51077;42.716;23.344;2022-10-13T02:36:23;17.00;;;12.30;;
64667;SDS011;51077;42.716;23.344;2022-10-13T02:38:49;23.17;;;13.60;;
64667;SDS011;51077;42.716;23.344;2022-10-13T02:41:14;24.33;;;14.43;;
64667;SDS011;51077;42.716;23.344;2022-10-13T02:43:40;21.27;;;14.20;;
64667;SDS011;51077;42.716;23.344;2022-10-13T02:46:05;23.73;;;15.20;;
64667;SDS011;51077;42.716;23.344;2022-10-13T02:48:30;23.80;;;15.27;;
64667;SDS011;51077;42.716;23.344;2022-10-13T02:50:56;25.37;;;15.93;;
64667;SDS011;51077;42.716;23.344;2022-10-13T02:53:21;21.83;;;14.37;;
64667;SDS011;51077;42.716;23.344;2022-10-13T02:55:47;20.40;;;14.30;;
64667;SDS011;51077;42.716;23.344;2022-10-13T02:58:12;24.77;;;14.03;;
64667;SDS011;51077;42.716;23.344;2022-10-13T03:00:38;22.00;;;14.87;;
64667;SDS011;51077;42.716;23.344;2022-10-13T03:03:03;21.00;;;15.53;;
64667;SDS011;51077;42.716;23.344;2022-10-13T03:05:29;24.52;;;15.23;;
64667;SDS011;51077;42.716;23.344;2022-10-13T03:07:55;25.17;;;16.47;;
64667;SDS011;51077;42.716;23.344;2022-10-13T03:10:20;28.33;;;17.53;;
64667;SDS011;51077;42.716;23.344;2022-10-13T03:12:45;30.57;;;17.53;;
64667;SDS011;51077;42.716;23.344;2022-10-13T03:15:11;29.10;;;16.63;;
64667;SDS011;51077;42.716;23.344;2022-10-13T03:17:36;30.17;;;17.93;;
64667;SDS011;51077;42.716;23.344;2022-10-13T03:20:02;28.03;;;18.13;;
64667;SDS011;51077;42.716;23.344;2022-10-13T03:22:30;26.45;;;16.60;;
64667;SDS011;51077;42.716;23.344;2022-10-13T03:24:56;30.17;;;18.27;;
64667;SDS011;51077;42.716;23.344;2022-10-13T03:27:21;28.07;;;18.37;;
64667;SDS011;51077;42.716;23.344;2022-10-13T03:29:46;29.47;;;17.80;;
64667;SDS011;51077;42.716;23.344;2022-10-13T03:32:12;29.57;;;18.43;;
64667;SDS011;51077;42.716;23.344;2022-10-13T03:34:37;26.87;;;18.13;;
64667;SDS011;51077;42.716;23.344;2022-10-13T03:37:03;26.77;;;16.67;;
64667;SDS011;51077;42.716;23.344;2022-10-13T03:39:28;27.73;;;17.23;;
64667;SDS011;51077;42.716;23.344;2022-10-13T03:41:54;24.97;;;17.13;;
64667;SDS011;51077;42.716;23.344;2022-10-13T03:44:19;26.60;;;16.40;;
64667;SDS011;51077;42.716;23.344;2022-10-13T03:46:44;22.73;;;15.40;;
64667;SDS011;51077;42.716;23.344;2022-10-13T03:49:10;20.60;;;14.73;;
64667;SDS011;51077;42.716;23.344;2022-10-13T03:51:36;19.87;;;13.90;;
64667;SDS011;51077;42.716;23.344;2022-10-13T03:54:01;25.00;;;14.63;;
64667;SDS011;51077;42.716;23.344;2022-10-13T03:56:27;22.37;;;14.73;;
64667;SDS011;51077;42.716;23.344;2022-10-13T03:58:54;21.83;;;13.73;;
64667;SDS011;51077;42.716;23.344;2022-10-13T04:01:21;21.25;;;14.43;;
64667;SDS011;51077;42.716;23.344;2022-10-13T04:03:48;22.17;;;14.00;;
64667;SDS011;51077;42.716;23.344;2022-10-13T04:06:15;21.27;;;14.45;;
64667;SDS011;51077;42.716;23.344;2022-10-13T04:08:41;23.27;;;15.13;;
64667;SDS011;51077;42.716;23.344;2022-10-13T04:11:07;21.63;;;14.47;;
64667;SDS011;51077;42.716;23.344;2022-10-13T04:13:35;25.50;;;15.18;;
64667;SDS011;51077;42.716;23.344;2022-10-13T04:16:02;20.47;;;15.03;;
64667;SDS011;51077;42.716;23.344;2022-10-13T04:18:28;23.58;;;15.38;;
64667;SDS011;51077;42.716;23.344;2022-10-13T04:20:54;24.17;;;13.93;;
64667;SDS011;51077;42.716;23.344;2022-10-13T04:23:19;22.07;;;14.53;;
64667;SDS011;51077;42.716;23.344;2022-10-13T04:25:45;20.90;;;14.83;;
64667;SDS011;51077;42.716;23.344;2022-10-13T04:28:10;25.30;;;15.50;;
64667;SDS011;51077;42.716;23.344;2022-10-13T04:30:36;22.43;;;13.20;;
64667;SDS011;51077;42.716;23.344;2022-10-13T04:33:01;24.80;;;13.83;;
64667;SDS011;51077;42.716;23.344;2022-10-13T04:35:27;23.27;;;12.82;;
64667;SDS011;51077;42.716;23.344;2022-10-13T04:37:53;21.40;;;13.80;;
64667;SDS011;51077;42.716;23.344;2022-10-13T04:40:18;20.63;;;13.70;;
64667;SDS011;51077;42.716;23.344;2022-10-13T04:42:44;22.23;;;14.00;;
64667;SDS011;51077;42.716;23.344;2022-10-13T04:45:09;22.50;;;13.30;;
64667;SDS011;51077;42.716;23.344;2022-10-13T04:47:35;21.97;;;13.77;;
64667;SDS011;51077;42.716;23.344;2022-10-13T04:50:02;22.23;;;13.20;;
64667;SDS011;51077;42.716;23.344;2022-10-13T04:52:28;21.13;;;13.23;;
64667;SDS011;51077;42.716;23.344;2022-10-13T04:54:53;25.57;;;14.90;;
64667;SDS011;51077;42.716;23.344;2022-10-13T04:57:18;26.20;;;15.47;;
64667;SDS011;51077;42.716;23.344;2022-10-13T04:59:44;23.83;;;14.93;;
64667;SDS011;51077;42.716;23.344;2022-10-13T05:02:09;23.23;;;14.63;;
64667;SDS011;51077;42.716;23.344;2022-10-13T05:04:35;25.03;;;15.00;;
64667;SDS011;51077;42.716;23.344;2022-10-13T05:07:00;29.20;;;15.60;;
64667;SDS011;51077;42.716;23.344;2022-10-13T05:09:26;27.87;;;16.97;;
64667;SDS011;51077;42.716;23.344;2022-10-13T05:11:51;25.33;;;16.30;;
64667;SDS011;51077;42.716;23.344;2022-10-13T05:14:19;28.92;;;16.10;;
64667;SDS011;51077;42.716;23.344;2022-10-13T05:16:45;29.50;;;16.75;;
64667;SDS011;51077;42.716;23.344;2022-10-13T05:19:10;28.03;;;17.60;;
64667;SDS011;51077;42.716;23.344;2022-10-13T05:21:36;28.17;;;16.27;;
64667;SDS011;51077;42.716;23.344;2022-10-13T05:24:02;28.33;;;16.60;;
64667;SDS011;51077;42.716;23.344;2022-10-13T05:26:30;30.20;;;16.73;;
64667;SDS011;51077;42.716;23.344;2022-10-13T05:28:59;25.85;;;16.17;;
64667;SDS011;51077;42.716;23.344;2022-10-13T05:31:26;25.75;;;15.55;;
64667;SDS011;51077;42.716;23.344;2022-10-13T05:33:53;24.35;;;16.17;;
64667;SDS011;51077;42.716;23.344;2022-10-13T05:36:25;24.17;;;15.17;;
64667;SDS011;51077;42.716;23.344;2022-10-13T05:38:55;23.60;;;15.10;;
64667;SDS011;51077;42.716;23.344;2022-10-13T05:41:23;23.05;;;15.25;;
64667;SDS011;51077;42.716;23.344;2022-10-13T05:43:49;22.90;;;14.68;;
64667;SDS011;51077;42.716;23.344;2022-10-13T05:46:17;22.77;;;14.27;;
64667;SDS011;51077;42.716;23.344;2022-10-13T05:48:42;24.60;;;13.80;;
64667;SDS011;51077;42.716;23.344;2022-10-13T05:51:13;24.37;;;14.00;;
64667;SDS011;51077;42.716;23.344;2022-10-13T05:53:44;21.88;;;14.00;;
64667;SDS011;51077;42.716;23.344;2022-10-13T05:56:14;24.20;;;14.63;;
64667;SDS011;51077;42.716;23.344;2022-10-13T05:58:49;19.38;;;13.55;;
64667;SDS011;51077;42.716;23.344;2022-10-13T06:01:18;24.73;;;14.15;;
64667;SDS011;51077;42.716;23.344;2022-10-13T06:03:46;23.85;;;14.80;;
64667;SDS011;51077;42.716;23.344;2022-10-13T06:06:14;20.98;;;13.80;;
64667;SDS011;51077;42.716;23.344;2022-10-13T06:08:39;22.52;;;14.60;;
64667;SDS011;51077;42.716;23.344;2022-10-13T06:11:06;25.10;;;14.60;;
64667;SDS011;51077;42.716;23.344;2022-10-13T06:13:32;22.98;;;14.18;;
64667;SDS011;51077;42.716;23.344;2022-10-13T06:15:58;22.05;;;14.38;;
64667;SDS011;51077;42.716;23.344;2022-10-13T06:18:24;25.60;;;15.63;;
64667;SDS011;51077;42.716;23.344;2022-10-13T06:20:49;23.07;;;14.50;;
64667;SDS011;51077;42.716;23.344;2022-10-13T06:23:15;25.13;;;15.30;;
64667;SDS011;51077;42.716;23.344;2022-10-13T06:25:47;24.60;;;15.57;;
64667;SDS011;51077;42.716;23.344;2022-10-13T06:28:13;24.23;;;14.98;;
64667;SDS011;51077;42.716;23.344;2022-10-13T06:30:39;25.90;;;15.07;;
64667;SDS011;51077;42.716;23.344;2022-10-13T06:33:07;26.40;;;15.60;;
64667;SDS011;51077;42.716;23.344;2022-10-13T06:35:33;32.40;;;17.23;;
64667;SDS011;51077;42.716;23.344;2022-10-13T06:37:58;24.80;;;16.33;;
64667;SDS011;51077;42.716;23.344;2022-10-13T06:40:24;29.17;;;17.60;;
64667;SDS011;51077;42.716;23.344;2022-10-13T06:42:49;27.73;;;16.53;;
64667;SDS011;51077;42.716;23.344;2022-10-13T06:45:15;27.00;;;16.60;;
64667;SDS011;51077;42.716;23.344;2022-10-13T06:47:41;27.83;;;17.23;;
64667;SDS011;51077;42.716;23.344;2022-10-13T06:50:06;24.03;;;15.93;;
64667;SDS011;51077;42.716;23.344;2022-10-13T06:52:33;24.67;;;15.50;;
64667;SDS011;51077;42.716;23.344;2022-10-13T06:54:59;28.47;;;16.87;;
64667;SDS011;51077;42.716;23.344;2022-10-13T06:57:24;28.03;;;16.47;;
64667;SDS011;51077;42.716;23.344;2022-10-13T06:59:49;27.20;;;17.17;;
64667;SDS011;51077;42.716;23.344;2022-10-13T07:02:16;24.50;;;16.83;;
64667;SDS011;51077;42.716;23.344;2022-10-13T07:04:42;26.53;;;15.83;;
64667;SDS011;51077;42.716;23.344;2022-10-13T07:07:08;26.80;;;15.93;;
64667;SDS011;51077;42.716;23.344;2022-10-13T07:09:33;24.87;;;15.80;;
64667;SDS011;51077;42.716;23.344;2022-10-13T07:11:58;21.03;;;14.60;;
64667;SDS011;51077;42.716;23.344;2022-10-13T07:14:24;28.33;;;16.47;;
64667;SDS011;51077;42.716;23.344;2022-10-13T07:16:49;26.00;;;15.50;;
64667;SDS011;51077;42.716;23.344;2022-10-13T07:19:14;24.07;;;16.37;;
64667;SDS011;51077;42.716;23.344;2022-10-13T07:21:40;23.13;;;15.77;;
64667;SDS011;51077;42.716;23.344;2022-10-13T07:24:05;25.23;;;15.97;;
64667;SDS011;51077;42.716;23.344;2022-10-13T07:26:32;21.23;;;14.82;;
64667;SDS011;51077;42.716;23.344;2022-10-13T07:28:58;24.20;;;14.80;;
64667;SDS011;51077;42.716;23.344;2022-10-13T07:31:23;22.90;;;15.18;;
64667;SDS011;51077;42.716;23.344;2022-10-13T07:33:49;23.77;;;15.37;;
64667;SDS011;51077;42.716;23.344;2022-10-13T07:36:15;20.67;;;15.10;;
64667;SDS011;51077;42.716;23.344;2022-10-13T07:38:41;19.63;;;13.73;;
64667;SDS011;51077;42.716;23.344;2022-10-13T07:41:08;19.57;;;12.70;;
64667;SDS011;51077;42.716;23.344;2022-10-13T07:43:35;16.42;;;11.85;;
64667;SDS011;51077;42.716;23.344;2022-10-13T07:46:01;17.47;;;12.77;;
64667;SDS011;51077;42.716;23.344;2022-10-13T07:48:30;16.85;;;12.20;;
64667;SDS011;51077;42.716;23.344;2022-10-13T07:50:56;17.77;;;11.60;;
64667;SDS011;51077;42.716;23.344;2022-10-13T07:53:22;17.80;;;11.33;;
64667;SDS011;51077;42.716;23.344;2022-10-13T07:55:47;13.63;;;10.57;;
64667;SDS011;51077;42.716;23.344;2022-10-13T07:58:13;16.13;;;10.70;;
64667;SDS011;51077;42.716;23.344;2022-10-13T08:00:39;14.63;;;10.33;;
64667;SDS011;51077;42.716;23.344;2022-10-13T08:03:05;13.38;;;10.63;;
64667;SDS011;51077;42.716;23.344;2022-10-13T08:05:30;15.43;;;9.97;;
64667;SDS011;51077;42.716;23.344;2022-10-13T08:07:56;16.23;;;9.77;;
64667;SDS011;51077;42.716;23.344;2022-10-13T08:10:21;11.37;;;8.90;;
64667;SDS011;51077;42.716;23.344;2022-10-13T08:12:47;14.63;;;9.00;;
64667;SDS011;51077;42.716;23.344;2022-10-13T08:15:12;15.50;;;10.43;;
64667;SDS011;51077;42.716;23.344;2022-10-13T08:17:38;14.77;;;9.47;;
64667;SDS011;51077;42.716;23.344;2022-10-13T08:20:04;16.03;;;10.00;;
64667;SDS011;51077;42.716;23.344;2022-10-13T08:22:30;17.83;;;9.88;;
64667;SDS011;51077;42.716;23.344;2022-10-13T08:24:58;14.55;;;9.93;;
64667;SDS011;51077;42.716;23.344;2022-10-13T08:27:25;15.60;;;9.02;;
64667;SDS011;51077;42.716;23.344;2022-10-13T08:29:51;13.68;;;9.52;;
64667;SDS011;51077;42.716;23.344;2022-10-13T08:32:18;12.93;;;9.98;;
64667;SDS011;51077;42.716;23.344;2022-10-13T08:34:45;12.50;;;9.52;;
64667;SDS011;51077;42.716;23.344;2022-10-13T08:37:14;15.87;;;10.03;;
64667;SDS011;51077;42.716;23.344;2022-10-13T08:39:42;15.30;;;9.70;;
64667;SDS011;51077;42.716;23.344;2022-10-13T08:42:17;15.60;;;9.77;;
64667;SDS011;51077;42.716;23.344;2022-10-13T08:49:52;12.33;;;8.60;;
64667;SDS011;51077;42.716;23.344;2022-10-13T08:52:41;16.33;;;9.73;;
64667;SDS011;51077;42.716;23.344;2022-10-13T08:55:10;13.02;;;8.80;;
64667;SDS011;51077;42.716;23.344;2022-10-13T08:57:44;12.30;;;8.55;;
64667;SDS011;51077;42.716;23.344;2022-10-13T09:00:11;10.93;;;8.30;;
64667;SDS011;51077;42.716;23.344;2022-10-13T09:02:37;13.73;;;9.18;;
64667;SDS011;51077;42.716;23.344;2022-10-13T09:05:03;11.67;;;9.07;;
64667;SDS011;51077;42.716;23.344;2022-10-13T09:07:36;13.18;;;8.63;;
64667;SDS011;51077;42.716;23.344;2022-10-13T09:10:04;10.80;;;8.55;;
64667;SDS011;51077;42.716;23.344;2022-10-13T09:12:31;13.95;;;9.07;;
64667;SDS011;51077;42.716;23.344;2022-10-13T09:15:03;11.85;;;8.77;;
64667;SDS011;51077;42.716;23.344;2022-10-13T09:17:31;12.45;;;8.63;;
64667;SDS011;51077;42.716;23.344;2022-10-13T09:22:30;15.10;;;8.77;;
64667;SDS011;51077;42.716;23.344;2022-10-13T09:30:29;11.55;;;7.93;;
64667;SDS011;51077;42.716;23.344;2022-10-13T09:35:29;12.82;;;8.45;;
64667;SDS011;51077;42.716;23.344;2022-10-13T09:38:05;14.57;;;8.68;;
64667;SDS011;51077;42.716;23.344;2022-10-13T09:40:35;12.43;;;7.50;;
64667;SDS011;51077;42.716;23.344;2022-10-13T09:43:02;12.07;;;8.00;;
64667;SDS011;51077;42.716;23.344;2022-10-13T09:45:37;10.63;;;7.55;;
64667;SDS011;51077;42.716;23.344;2022-10-13T09:48:07;13.32;;;8.15;;
64667;SDS011;51077;42.716;23.344;2022-10-13T09:50:48;11.00;;;7.77;;
64667;SDS011;51077;42.716;23.344;2022-10-13T09:59:12;9.50;;;7.50;;
64667;SDS011;51077;42.716;23.344;2022-10-13T10:01:40;9.20;;;7.00;;
64667;SDS011;51077;42.716;23.344;2022-10-13T10:04:15;9.87;;;7.53;;
64667;SDS011;51077;42.716;23.344;2022-10-13T10:06:47;11.47;;;7.10;;
64667;SDS011;51077;42.716;23.344;2022-10-13T10:09:27;10.73;;;7.13;;
64667;SDS011;51077;42.716;23.344;2022-10-13T10:12:00;9.07;;;6.70;;
64667;SDS011;51077;42.716;23.344;2022-10-13T10:17:28;11.50;;;7.20;;
64667;SDS011;51077;42.716;23.344;2022-10-13T10:27:40;10.93;;;6.63;;
64667;SDS011;51077;42.716;23.344;2022-10-13T10:30:12;9.90;;;6.97;;
64667;SDS011;51077;42.716;23.344;2022-10-13T10:35:43;8.67;;;6.73;;
64667;SDS011;51077;42.716;23.344;2022-10-13T10:46:47;9.30;;;6.03;;
64667;SDS011;51077;42.716;23.344;2022-10-13T10:51:54;9.93;;;5.60;;
64667;SDS011;51077;42.716;23.344;2022-10-13T11:02:58;10.87;;;6.70;;
64667;SDS011;51077;42.716;23.344;2022-10-13T11:08:38;9.10;;;5.67;;
64667;SDS011;51077;42.716;23.344;2022-10-13T11:13:49;10.77;;;5.37;;
64667;SDS011;51077;42.716;23.344;2022-10-13T11:16:28;6.43;;;5.20;;
64667;SDS011;51077;42.716;23.344;2022-10-13T11:27:09;9.70;;;6.13;;
64667;SDS011;51077;42.716;23.344;2022-10-13T11:45:40;8.97;;;5.73;;
64667;SDS011;51077;42.716;23.344;2022-10-13T11:59:23;8.93;;;5.07;;
64667;SDS011;51077;42.716;23.344;2022-10-13T12:02:31;8.27;;;5.00;;
64667;SDS011;51077;42.716;23.344;2022-10-13T12:04:41;8.73;;;5.20;;
64667;SDS011;51077;42.716;23.344;2022-10-13T12:07:11;7.10;;;5.03;;
64667;SDS011;51077;42.716;23.344;2022-10-13T12:09:49;9.43;;;4.10;;
64667;SDS011;51077;42.716;23.344;2022-10-13T12:12:18;6.97;;;4.77;;
64667;SDS011;51077;42.716;23.344;2022-10-13T12:14:46;8.20;;;4.80;;
64667;SDS011;51077;42.716;23.344;2022-10-13T12:17:20;8.20;;;5.10;;
64667;SDS011;51077;42.716;23.344;2022-10-13T12:19:59;8.73;;;4.67;;
64667;SDS011;51077;42.716;23.344;2022-10-13T12:22:47;6.20;;;4.80;;
64667;SDS011;51077;42.716;23.344;2022-10-13T12:25:19;6.10;;;4.17;;
64667;SDS011;51077;42.716;23.344;2022-10-13T12:27:49;6.50;;;4.70;;
64667;SDS011;51077;42.716;23.344;2022-10-13T12:30:29;6.57;;;4.50;;
64667;SDS011;51077;42.716;23.344;2022-10-13T12:33:01;8.23;;;4.85;;
64667;SDS011;51077;42.716;23.344;2022-10-13T12:35:32;8.45;;;4.85;;
64667;SDS011;51077;42.716;23.344;2022-10-13T12:38:02;8.75;;;4.57;;
64667;SDS011;51077;42.716;23.344;2022-10-13T12:40:30;9.25;;;4.20;;
64667;SDS011;51077;42.716;23.344;2022-10-13T12:42:56;12.80;;;4.37;;
64667;SDS011;51077;42.716;23.344;2022-10-13T12:45:22;10.67;;;4.50;;
64667;SDS011;51077;42.716;23.344;2022-10-13T12:47:53;6.43;;;4.45;;
64667;SDS011;51077;42.716;23.344;2022-10-13T12:52:47;6.90;;;4.40;;
64667;SDS011;51077;42.716;23.344;2022-10-13T12:55:16;9.60;;;5.22;;
64667;SDS011;51077;42.716;23.344;2022-10-13T12:57:46;11.60;;;4.78;;
64667;SDS011;51077;42.716;23.344;2022-10-13T13:02:46;7.45;;;4.78;;
64667;SDS011;51077;42.716;23.344;2022-10-13T13:07:53;6.53;;;4.22;;
64667;SDS011;51077;42.716;23.344;2022-10-13T13:10:19;6.07;;;4.40;;
64667;SDS011;51077;42.716;23.344;2022-10-13T13:12:46;6.40;;;4.60;;
64667;SDS011;51077;42.716;23.344;2022-10-13T13:21:07;6.90;;;4.97;;
64667;SDS011;51077;42.716;23.344;2022-10-13T13:23:35;8.13;;;4.10;;
64667;SDS011;51077;42.716;23.344;2022-10-13T13:26:20;6.77;;;4.87;;
64667;SDS011;51077;42.716;23.344;2022-10-13T13:31:14;8.52;;;4.88;;
64667;SDS011;51077;42.716;23.344;2022-10-13T13:33:41;8.77;;;4.85;;
64667;SDS011;51077;42.716;23.344;2022-10-13T13:36:25;7.87;;;4.43;;
64667;SDS011;51077;42.716;23.344;2022-10-13T13:38:52;6.53;;;4.80;;
64667;SDS011;51077;42.716;23.344;2022-10-13T13:41:18;7.75;;;4.47;;
64667;SDS011;51077;42.716;23.344;2022-10-13T13:43:44;7.30;;;4.47;;
64667;SDS011;51077;42.716;23.344;2022-10-13T13:46:13;8.20;;;4.20;;
64667;SDS011;51077;42.716;23.344;2022-10-13T13:48:41;7.55;;;4.88;;
64667;SDS011;51077;42.716;23.344;2022-10-13T13:51:07;6.50;;;4.27;;
64667;SDS011;51077;42.716;23.344;2022-10-13T13:53:33;7.43;;;4.50;;
64667;SDS011;51077;42.716;23.344;2022-10-13T13:55:59;9.37;;;4.67;;
64667;SDS011;51077;42.716;23.344;2022-10-13T13:58:24;7.20;;;4.47;;
64667;SDS011;51077;42.716;23.344;2022-10-13T14:00:50;7.03;;;4.20;;
64667;SDS011;51077;42.716;23.344;2022-10-13T14:03:15;7.33;;;4.60;;
64667;SDS011;51077;42.716;23.344;2022-10-13T14:05:40;6.53;;;4.23;;
64667;SDS011;51077;42.716;23.344;2022-10-13T14:08:06;6.47;;;4.27;;
64667;SDS011;51077;42.716;23.344;2022-10-13T14:10:32;6.33;;;3.70;;
64667;SDS011;51077;42.716;23.344;2022-10-13T14:12:57;7.60;;;3.93;;
64667;SDS011;51077;42.716;23.344;2022-10-13T14:15:23;8.17;;;4.73;;
64667;SDS011;51077;42.716;23.344;2022-10-13T14:17:50;5.67;;;4.03;;
64667;SDS011;51077;42.716;23.344;2022-10-13T14:20:16;8.35;;;4.03;;
64667;SDS011;51077;42.716;23.344;2022-10-13T14:22:42;6.47;;;3.63;;
64667;SDS011;51077;42.716;23.344;2022-10-13T14:25:07;5.50;;;4.07;;
64667;SDS011;51077;42.716;23.344;2022-10-13T14:27:34;13.63;;;5.30;;
64667;SDS011;51077;42.716;23.344;2022-10-13T14:30:00;15.27;;;5.13;;
64667;SDS011;51077;42.716;23.344;2022-10-13T14:32:26;9.63;;;5.60;;
64667;SDS011;51077;42.716;23.344;2022-10-13T14:34:51;10.50;;;5.37;;
64667;SDS011;51077;42.716;23.344;2022-10-13T14:37:17;7.40;;;5.33;;
64667;SDS011;51077;42.716;23.344;2022-10-13T14:39:42;11.10;;;4.87;;
64667;SDS011;51077;42.716;23.344;2022-10-13T14:42:08;6.80;;;4.80;;
64667;SDS011;51077;42.716;23.344;2022-10-13T14:44:33;6.70;;;4.50;;
64667;SDS011;51077;42.716;23.344;2022-10-13T14:46:59;7.97;;;4.57;;
64667;SDS011;51077;42.716;23.344;2022-10-13T14:49:24;9.67;;;4.53;;
64667;SDS011;51077;42.716;23.344;2022-10-13T14:51:49;7.93;;;4.40;;
64667;SDS011;51077;42.716;23.344;2022-10-13T14:54:15;6.03;;;4.30;;
64667;SDS011;51077;42.716;23.344;2022-10-13T14:56:40;11.83;;;4.53;;
64667;SDS011;51077;42.716;23.344;2022-10-13T14:59:06;9.90;;;4.47;;
64667;SDS011;51077;42.716;23.344;2022-10-13T15:01:32;8.60;;;4.60;;
64667;SDS011;51077;42.716;23.344;2022-10-13T15:03:58;7.88;;;4.75;;
64667;SDS011;51077;42.716;23.344;2022-10-13T15:06:24;7.22;;;4.40;;
64667;SDS011;51077;42.716;23.344;2022-10-13T15:08:50;12.30;;;4.80;;
64667;SDS011;51077;42.716;23.344;2022-10-13T15:11:17;8.10;;;4.40;;
64667;SDS011;51077;42.716;23.344;2022-10-13T15:13:44;11.63;;;4.95;;
64667;SDS011;51077;42.716;23.344;2022-10-13T15:16:19;9.43;;;4.47;;
64667;SDS011;51077;42.716;23.344;2022-10-13T15:18:47;7.97;;;4.43;;
64667;SDS011;51077;42.716;23.344;2022-10-13T15:21:13;8.95;;;4.60;;
64667;SDS011;51077;42.716;23.344;2022-10-13T15:23:39;10.57;;;4.70;;
64667;SDS011;51077;42.716;23.344;2022-10-13T15:26:05;9.60;;;4.13;;
64667;SDS011;51077;42.716;23.344;2022-10-13T15:28:38;8.87;;;4.80;;
64667;SDS011;51077;42.716;23.344;2022-10-13T15:33:31;7.97;;;4.07;;
64667;SDS011;51077;42.716;23.344;2022-10-13T15:35:56;6.90;;;4.37;;
64667;SDS011;51077;42.716;23.344;2022-10-13T15:38:22;8.57;;;4.00;;
64667;SDS011;51077;42.716;23.344;2022-10-13T15:40:48;8.93;;;4.22;;
64667;SDS011;51077;42.716;23.344;2022-10-13T15:43:14;6.67;;;4.40;;
64667;SDS011;51077;42.716;23.344;2022-10-13T15:45:41;6.53;;;4.45;;
64667;SDS011;51077;42.716;23.344;2022-10-13T15:48:07;8.27;;;4.13;;
64667;SDS011;51077;42.716;23.344;2022-10-13T15:50:37;11.52;;;5.00;;
64667;SDS011;51077;42.716;23.344;2022-10-13T15:53:04;7.30;;;4.82;;
64667;SDS011;51077;42.716;23.344;2022-10-13T15:55:29;13.37;;;4.70;;
64667;SDS011;51077;42.716;23.344;2022-10-13T15:57:55;8.32;;;4.38;;
64667;SDS011;51077;42.716;23.344;2022-10-13T16:00:21;8.90;;;4.70;;
64667;SDS011;51077;42.716;23.344;2022-10-13T16:02:47;8.90;;;4.77;;
64667;SDS011;51077;42.716;23.344;2022-10-13T16:05:15;7.80;;;4.95;;
64667;SDS011;51077;42.716;23.344;2022-10-13T16:07:40;14.57;;;4.33;;
64667;SDS011;51077;42.716;23.344;2022-10-13T16:10:06;7.47;;;4.47;;
64667;SDS011;51077;42.716;23.344;2022-10-13T16:12:33;8.50;;;4.72;;
64667;SDS011;51077;42.716;23.344;2022-10-13T16:14:59;9.33;;;4.77;;
64667;SDS011;51077;42.716;23.344;2022-10-13T16:17:24;8.67;;;4.50;;
64667;SDS011;51077;42.716;23.344;2022-10-13T16:19:49;10.53;;;4.40;;
64667;SDS011;51077;42.716;23.344;2022-10-13T16:22:15;13.23;;;4.73;;
64667;SDS011;51077;42.716;23.344;2022-10-13T16:24:41;8.98;;;5.13;;
64667;SDS011;51077;42.716;23.344;2022-10-13T16:27:06;7.20;;;3.93;;
64667;SDS011;51077;42.716;23.344;2022-10-13T16:29:32;8.13;;;4.60;;
64667;SDS011;51077;42.716;23.344;2022-10-13T16:31:58;9.73;;;4.72;;
64667;SDS011;51077;42.716;23.344;2022-10-13T16:34:24;8.35;;;5.13;;
64667;SDS011;51077;42.716;23.344;2022-10-13T16:36:50;7.82;;;4.40;;
64667;SDS011;51077;42.716;23.344;2022-10-13T16:39:16;7.20;;;4.20;;
64667;SDS011;51077;42.716;23.344;2022-10-13T16:41:41;9.13;;;4.30;;
64667;SDS011;51077;42.716;23.344;2022-10-13T16:44:06;8.50;;;4.57;;
64667;SDS011;51077;42.716;23.344;2022-10-13T16:46:32;5.60;;;4.03;;
64667;SDS011;51077;42.716;23.344;2022-10-13T16:48:58;5.53;;;4.03;;
64667;SDS011;51077;42.716;23.344;2022-10-13T16:51:24;7.28;;;4.35;;